Date,TemperatureHighF,TemperatureAvgF,TemperatureLowF,DewpointHighF,DewpointAvgF,DewpointLowF,HumidityHigh,HumidityAvg,HumidityLow,PressureMaxIn,PressureMinIn,WindSpeedMaxMPH,WindSpeedAvgMPH,GustSpeedMaxMPH,PrecipitationSumIn
2013-1-1,30.7,20.8,10.8,0.0,0.0,0.0,0,0,100,30.12,29.98,8,1,16,0.00
2013-1-2,33.4,23.1,13.9,0.0,0.0,0.0,0,0,100,30.27,30.09,9,1,15,0.00
2013-1-3,36.8,20.5,8.0,0.0,0.0,0.0,0,0,100,30.28,30.15,5,0,9,0.00
2013-1-4,44.7,25.8,13.7,0.0,0.0,0.0,0,0,100,30.17,30.00,3,0,7,0.00
2013-1-5,40.6,24.8,14.9,0.0,0.0,0.0,0,0,100,30.27,30.03,8,0,14,0.00
2013-1-6,44.0,26.1,11.6,0.0,0.0,0.0,0,0,100,30.24,29.91,2,0,5,0.00
2013-1-7,49.3,35.9,24.3,0.0,0.0,0.0,0,0,100,30.00,29.77,9,0,16,0.00
2013-1-8,51.3,42.1,25.9,0.0,0.0,0.0,0,0,100,30.21,29.75,10,2,24,0.00
2013-1-9,54.4,33.8,22.3,0.0,0.0,0.0,0,0,100,30.30,29.98,7,0,10,0.00
2013-1-10,42.5,30.6,20.2,0.0,0.0,0.0,0,0,100,29.97,29.41,7,0,16,0.00
2013-1-11,39.6,28.8,14.4,0.0,0.0,0.0,0,0,100,29.70,29.22,10,4,25,0.00
2013-1-12,19.2,10.8,4.9,0.0,0.0,0.0,0,0,100,29.95,29.72,8,1,13,0.00
2013-1-13,20.8,9.6,2.1,0.0,0.0,0.0,0,0,100,30.05,29.93,8,0,12,0.00
2013-1-14,17.9,8.2,1.2,0.0,0.0,0.0,0,0,100,30.09,29.98,5,0,10,0.00
2013-1-15,32.9,18.8,-0.8,0.0,0.0,0.0,0,0,100,30.10,30.00,3,0,9,0.00
2013-1-16,50.9,33.7,21.4,0.0,0.0,0.0,0,0,100,30.36,30.09,6,0,10,0.00
2013-1-17,49.5,31.1,19.1,0.0,0.0,0.0,0,0,100,30.46,30.20,5,0,10,0.00
2013-1-18,56.4,40.2,20.3,0.0,0.0,0.0,0,0,100,30.19,30.04,9,2,36,0.00
2013-1-19,57.9,46.4,34.0,0.0,0.0,0.0,0,0,100,30.24,30.03,8,2,36,0.00
2013-1-20,48.3,33.4,21.0,0.0,0.0,0.0,0,0,100,30.24,30.11,6,0,15,0.00
2013-1-21,55.1,36.2,16.3,0.0,0.0,0.0,0,0,100,30.21,30.05,9,1,25,0.00
2013-1-22,61.3,50.7,34.2,0.0,0.0,0.0,0,0,100,30.15,30.00,13,3,28,0.00
2013-1-23,55.2,40.2,29.0,0.0,0.0,0.0,0,0,100,30.19,30.10,0,0,0,0.00
2013-1-24,64.5,51.8,27.4,0.0,0.0,0.0,0,0,100,30.13,29.95,15,3,34,0.00
2013-1-25,58.8,42.3,30.2,0.0,0.0,0.0,0,0,100,30.16,30.04,5,0,12,0.00
2013-1-26,55.7,42.2,30.5,0.0,0.0,0.0,0,0,100,30.04,29.73,3,0,12,0.00
2013-1-27,57.2,41.7,30.5,0.0,0.0,0.0,0,0,100,29.75,29.68,6,1,12,0.00
2013-1-28,52.7,34.3,26.9,0.0,0.0,0.0,0,0,100,29.71,29.51,9,0,19,0.00
2013-1-29,34.7,25.6,15.1,0.0,0.0,0.0,0,0,100,29.91,29.63,3,0,14,0.00
2013-1-30,41.2,26.5,8.7,0.0,0.0,0.0,0,0,100,29.90,29.73,15,2,33,0.00
2013-1-31,45.5,35.7,24.8,0.0,0.0,0.0,0,0,100,30.11,29.83,15,3,28,0.00
2013-2-1,46.9,35.6,22.9,0.0,0.0,0.0,0,0,100,30.18,30.02,10,2,22,0.00
2013-2-2,55.7,37.6,21.9,0.0,0.0,0.0,0,0,100,30.32,30.18,9,1,20,0.00
2013-2-3,52.9,37.4,23.5,0.0,0.0,0.0,0,0,100,30.23,29.87,7,1,15,0.00
2013-2-4,53.2,40.2,23.4,0.0,0.0,0.0,0,0,100,29.95,29.82,13,4,28,0.00
2013-2-5,59.3,45.2,34.9,0.0,0.0,0.0,0,0,100,30.03,29.82,7,1,17,0.00
2013-2-6,53.3,41.4,29.6,0.0,0.0,0.0,0,0,100,30.07,29.78,9,2,17,0.00
2013-2-7,49.0,34.6,23.6,0.0,0.0,0.0,0,0,100,30.16,30.00,7,1,14,0.00
2013-2-8,50.7,32.2,19.6,0.0,0.0,0.0,0,0,100,29.99,29.65,1,0,8,0.00
2013-2-9,38.5,29.9,21.8,0.0,0.0,0.0,0,0,100,29.67,29.48,8,1,15,0.00
2013-2-10,39.5,28.6,21.4,0.0,0.0,0.0,0,0,100,30.01,29.53,7,1,15,0.00
2013-2-11,32.6,23.8,16.7,0.0,0.0,0.0,0,0,100,30.02,29.91,7,0,12,0.00
2013-2-12,42.1,26.0,12.6,0.0,0.0,0.0,0,0,100,30.00,29.95,3,0,9,0.00
2013-2-13,45.7,34.4,19.2,0.0,0.0,0.0,0,0,100,29.99,29.86,17,5,32,0.00
2013-2-14,38.3,29.3,22.8,0.0,0.0,0.0,0,0,100,30.26,29.96,9,1,23,0.00
2013-2-15,42.3,27.1,14.7,0.0,0.0,0.0,0,0,100,30.28,30.18,5,1,13,0.00
2013-2-16,54.9,44.3,25.5,0.0,0.0,0.0,0,0,100,30.18,29.95,12,4,30,0.00
2013-2-17,60.9,43.2,27.1,0.0,0.0,0.0,0,0,100,29.96,29.52,10,2,27,0.00
2013-2-18,41.0,30.9,19.5,0.0,0.0,0.0,0,0,100,30.05,29.74,13,2,31,0.00
2013-2-19,43.2,29.7,18.2,0.0,0.0,0.0,0,0,100,30.05,29.74,5,0,11,0.00
2013-2-20,40.2,27.8,21.1,0.0,0.0,0.0,0,0,100,29.75,29.57,7,1,13,0.00
2013-2-21,32.0,23.1,16.6,0.0,0.0,0.0,0,0,100,29.83,29.65,3,0,10,0.00
2013-2-22,37.0,25.9,15.0,0.0,0.0,0.0,0,0,100,29.90,29.77,8,1,21,0.00
2013-2-23,47.9,32.1,19.7,0.0,0.0,0.0,0,0,100,29.80,29.55,6,1,14,0.00
2013-2-24,30.4,27.8,24.3,0.0,0.0,0.0,0,0,100,30.08,29.67,7,1,17,0.00
2013-2-25,36.3,22.2,7.0,0.0,0.0,0.0,0,0,100,30.06,29.77,6,0,13,0.00
2013-2-26,39.7,27.4,14.2,0.0,0.0,0.0,0,0,100,30.10,29.74,8,2,18,0.00
2013-2-27,36.1,24.7,12.2,0.0,0.0,0.0,0,0,100,30.21,30.10,7,1,14,0.00
2013-2-28,43.1,30.0,15.0,0.0,0.0,0.0,0,0,100,30.22,30.12,9,2,21,0.00
2013-3-1,46.7,36.3,22.9,0.0,0.0,0.0,0,0,100,30.30,30.20,7,1,15,0.00
2013-3-2,56.1,44.3,32.1,0.0,0.0,0.0,0,0,100,30.29,30.03,7,1,18,0.00
2013-3-3,63.6,50.4,37.8,0.0,0.0,0.0,0,0,100,30.02,29.65,12,3,28,0.00
2013-3-4,43.7,31.7,18.6,0.0,0.0,0.0,0,0,100,30.20,29.66,9,1,20,0.00
2013-3-5,39.5,25.4,11.8,0.0,0.0,0.0,0,0,100,30.23,30.11,3,0,10,0.00
2013-3-6,58.2,35.7,19.3,0.0,0.0,0.0,0,0,100,30.11,29.83,6,0,10,0.00
2013-3-7,64.9,44.9,28.7,0.0,0.0,0.0,0,0,100,29.97,29.83,7,1,17,0.00
2013-3-8,50.6,39.2,31.0,0.0,0.0,0.0,0,0,100,29.97,29.65,5,0,9,0.00
2013-3-9,35.7,31.9,24.6,0.0,0.0,0.0,0,0,100,30.07,29.60,8,1,20,0.00
2013-3-10,41.4,29.2,13.4,0.0,0.0,0.0,0,0,100,30.11,30.00,6,0,17,0.00
2013-3-11,53.9,40.5,31.8,0.0,0.0,0.0,0,0,100,30.14,29.91,13,4,28,0.00
2013-3-12,39.6,31.8,26.0,0.0,0.0,0.0,0,0,100,30.30,30.14,5,0,7,0.00
2013-3-13,62.3,44.4,27.2,0.0,0.0,0.0,0,0,100,30.28,30.14,9,2,21,0.00
2013-3-14,71.1,53.4,37.7,0.0,0.0,0.0,0,0,100,30.32,30.17,8,1,16,0.00
2013-3-15,74.5,62.9,48.2,0.0,0.0,0.0,0,0,100,30.16,29.90,10,4,22,0.00
2013-3-16,58.7,47.9,37.4,0.0,0.0,0.0,0,0,100,30.02,29.81,10,2,18,0.00
2013-3-17,59.2,43.8,30.8,0.0,0.0,0.0,0,0,100,29.82,29.52,13,4,35,0.00
2013-3-18,49.8,40.2,31.3,0.0,0.0,0.0,0,0,100,29.92,29.83,14,6,30,0.00
2013-3-19,56.3,43.5,28.8,0.0,0.0,0.0,0,0,100,30.36,29.91,13,5,31,0.00
2013-3-20,54.9,38.4,22.3,0.0,0.0,0.0,0,0,100,30.34,29.72,7,1,18,0.00
2013-3-21,59.3,45.6,37.0,0.0,0.0,0.0,0,0,100,29.80,29.49,13,3,30,0.00
2013-3-22,49.8,35.1,27.8,0.0,0.0,0.0,0,0,100,29.88,29.63,15,2,27,0.00
2013-3-23,28.6,21.6,11.7,0.0,0.0,0.0,0,0,100,30.14,29.86,7,2,17,0.00
2013-3-24,33.2,18.9,3.6,0.0,0.0,0.0,0,0,100,30.17,30.03,3,0,10,0.00
2013-3-25,36.5,24.7,14.0,0.0,0.0,0.0,0,0,100,30.22,30.15,6,0,10,0.00
2013-3-26,47.4,31.5,15.8,0.0,0.0,0.0,0,0,100,30.14,29.89,5,0,8,0.00
2013-3-27,53.6,39.4,28.1,0.0,0.0,0.0,0,0,100,30.09,29.98,6,0,12,0.00
2013-3-28,66.2,46.3,31.6,0.0,0.0,0.0,0,0,100,30.13,30.05,7,1,14,0.00
2013-3-29,65.6,51.3,35.9,0.0,0.0,0.0,0,0,100,30.15,30.06,9,2,21,0.00
2013-3-30,66.4,49.6,35.5,0.0,0.0,0.0,0,0,100,30.26,30.03,13,2,28,0.00
2013-3-31,71.5,50.0,31.1,0.0,0.0,0.0,0,0,100,30.24,29.94,8,1,14,0.00
2013-4-1,55.1,42.4,32.2,0.0,0.0,0.0,0,0,100,30.17,30.01,7,2,18,0.00
2013-4-2,42.5,38.4,35.8,0.0,0.0,0.0,0,0,100,30.13,30.05,6,1,12,0.00
2013-4-3,63.0,46.9,36.5,0.0,0.0,0.0,0,0,100,30.16,30.05,3,0,10,0.00
2013-4-4,71.1,52.5,36.2,0.0,0.0,0.0,0,0,100,30.17,30.02,7,1,13,0.00
2013-4-5,74.8,58.0,44.7,0.0,0.0,0.0,0,0,100,30.02,29.72,13,2,22,0.00
2013-4-6,70.2,54.5,42.2,0.0,0.0,0.0,0,0,100,29.96,29.85,9,1,23,0.00
2013-4-7,67.0,54.4,41.2,0.0,0.0,0.0,0,0,100,29.88,29.69,12,4,29,0.00
2013-4-8,63.3,45.9,28.8,0.0,0.0,0.0,0,0,100,29.81,29.39,14,3,33,0.00
2013-4-9,30.3,21.6,13.5,0.0,0.0,0.0,0,0,100,30.16,29.83,10,4,18,0.00
2013-4-10,34.5,21.2,10.0,0.0,0.0,0.0,0,0,100,30.13,29.82,6,1,12,0.00
2013-4-11,58.1,38.0,20.5,0.0,0.0,0.0,0,0,100,29.90,29.68,9,1,18,0.00
2013-4-12,58.8,43.3,31.4,0.0,0.0,0.0,0,0,100,29.99,29.85,15,2,25,0.00
2013-4-13,72.2,50.3,30.9,0.0,0.0,0.0,0,0,100,29.95,29.39,8,2,25,0.00
2013-4-14,49.6,41.7,35.6,0.0,0.0,0.0,0,0,100,29.74,29.50,17,7,33,0.00
2013-4-15,38.3,30.5,24.3,0.0,0.0,0.0,0,0,100,30.00,29.71,6,1,14,0.00
2013-4-16,36.3,29.8,24.6,0.0,0.0,0.0,0,0,100,30.00,29.80,8,2,16,0.00
2013-4-17,37.1,28.6,21.3,0.0,0.0,0.0,0,0,100,30.14,29.88,8,2,20,0.00
2013-4-18,41.2,26.9,12.4,0.0,0.0,0.0,0,0,100,30.14,30.05,6,1,14,0.00
2013-4-19,53.1,41.7,29.8,0.0,0.0,0.0,0,0,100,30.10,29.93,8,3,26,0.00
2013-4-20,63.8,47.0,34.8,0.0,0.0,0.0,0,0,100,30.01,29.88,6,1,12,0.00
2013-4-21,64.8,49.1,34.9,0.0,0.0,0.0,0,0,100,30.07,29.97,8,1,19,0.00
2013-4-22,51.3,35.8,24.7,0.0,0.0,0.0,0,0,100,30.29,29.90,10,2,26,0.00
2013-4-23,41.9,28.8,22.2,0.0,0.0,0.0,0,0,100,30.26,30.12,6,0,12,0.00
2013-4-24,61.8,39.8,23.9,0.0,0.0,0.0,0,0,100,30.22,30.11,7,1,15,0.00
2013-4-25,72.5,47.7,28.8,0.0,0.0,0.0,0,0,100,30.17,29.92,5,1,15,0.00
2013-4-26,73.2,54.5,38.2,0.0,0.0,0.0,0,0,100,30.27,30.03,9,1,13,0.00
2013-4-27,78.2,58.6,40.3,0.0,0.0,0.0,0,0,100,30.26,30.08,6,1,21,0.00
2013-4-28,82.0,63.1,43.3,0.0,0.0,0.0,0,0,100,30.09,29.89,13,2,22,0.00
2013-4-29,79.1,63.9,47.1,0.0,0.0,0.0,0,0,100,29.99,29.67,12,3,23,0.00
2013-4-30,65.5,52.8,37.8,0.0,0.0,0.0,0,0,100,30.05,29.66,10,2,23,0.00
2013-5-1,38.8,33.1,26.3,0.0,0.0,0.0,0,0,100,30.62,30.06,6,1,14,0.00
2013-5-2,51.7,34.2,19.7,0.0,0.0,0.0,0,0,100,30.68,30.43,3,0,8,0.00
2013-5-3,66.2,45.6,27.9,0.0,0.0,0.0,0,0,100,30.42,30.11,7,0,14,0.00
2013-5-4,66.1,49.5,37.0,0.0,0.0,0.0,0,0,100,30.25,30.11,7,1,14,0.00
2013-5-5,59.8,48.2,37.5,0.0,0.0,0.0,0,0,100,30.25,30.11,3,0,11,0.00
2013-5-6,71.9,53.0,38.7,0.0,0.0,0.0,0,0,100,30.12,29.95,6,1,12,0.00
2013-5-7,75.9,55.4,44.2,0.0,0.0,0.0,0,0,100,30.06,29.91,5,0,18,0.00
2013-5-8,62.6,49.6,42.6,0.0,0.0,0.0,0,0,100,30.14,29.98,8,2,17,0.00
2013-5-9,62.0,49.9,41.6,0.0,0.0,0.0,0,0,100,30.25,30.11,9,1,18,0.00
2013-5-10,72.3,53.2,38.1,0.0,0.0,0.0,0,0,100,30.38,30.22,6,0,16,0.00
2013-5-11,75.7,56.0,43.2,0.0,0.0,0.0,0,0,100,30.47,30.28,8,1,14,0.00
2013-5-12,84.4,64.8,47.5,0.0,0.0,0.0,0,0,100,30.30,30.19,6,1,15,0.00
2013-5-13,90.1,71.7,56.2,0.0,0.0,0.0,0,0,100,30.25,30.12,7,1,15,0.00
2013-5-14,82.4,68.0,53.1,0.0,0.0,0.0,0,0,100,30.12,30.01,10,2,30,0.00
2013-5-15,88.5,65.1,52.6,0.0,0.0,0.0,0,0,100,30.09,29.95,18,1,34,0.00
2013-5-16,83.9,65.4,51.8,0.0,0.0,0.0,0,0,100,30.02,29.87,10,1,16,0.00
2013-5-17,94.4,69.5,51.3,0.0,0.0,0.0,0,0,100,29.96,29.80,12,1,21,0.00
2013-5-18,85.2,65.5,53.4,0.0,0.0,0.0,0,0,100,29.97,29.82,9,1,19,0.00
2013-5-19,75.6,60.4,48.9,0.0,0.0,0.0,0,0,100,29.91,29.80,8,1,23,0.00
2013-5-20,70.0,57.4,49.8,0.0,0.0,0.0,0,0,100,30.08,29.88,8,1,15,0.00
2013-5-21,80.5,58.6,43.6,0.0,0.0,0.0,0,0,100,30.08,29.92,7,1,18,0.00
2013-5-22,86.2,61.0,45.7,0.0,0.0,0.0,0,0,100,30.14,29.93,8,1,18,0.00
2013-5-23,81.3,62.1,50.3,0.0,0.0,0.0,0,0,100,30.16,30.01,7,1,13,0.00
2013-5-24,87.2,66.2,47.2,0.0,0.0,0.0,0,0,100,30.08,29.95,12,1,16,0.00
2013-5-25,92.8,70.6,52.9,0.0,0.0,0.0,0,0,100,30.08,29.93,7,1,13,0.00
2013-5-26,88.4,69.7,55.3,0.0,0.0,0.0,0,0,100,30.00,29.93,7,1,14,0.00
2013-5-27,84.7,67.3,50.7,0.0,0.0,0.0,0,0,100,29.94,29.81,7,1,21,0.00
2013-5-28,85.9,65.5,50.3,0.0,0.0,0.0,0,0,100,29.89,29.61,12,1,23,0.00
2013-5-29,69.5,57.4,47.1,0.0,0.0,0.0,0,0,100,29.76,29.64,7,1,20,0.00
2013-5-30,70.3,59.9,50.9,0.0,0.0,0.0,0,0,100,29.93,29.69,15,5,30,0.00
2013-5-31,75.9,61.4,49.1,0.0,0.0,0.0,0,0,100,30.08,29.89,13,5,28,0.00
2013-6-1,80.4,61.1,44.8,0.0,0.0,0.0,0,0,100,30.29,30.08,7,1,16,0.00
2013-6-2,91.5,64.8,44.9,0.0,0.0,0.0,0,0,100,30.28,29.89,5,0,9,0.00
2013-6-3,91.4,71.7,51.1,0.0,0.0,0.0,0,0,100,30.03,29.82,10,2,23,0.00
2013-6-4,81.9,62.8,51.4,0.0,0.0,0.0,0,0,100,30.30,30.02,6,0,25,0.00
2013-6-5,68.1,54.8,48.8,0.0,0.0,0.0,0,0,100,30.30,30.19,3,0,8,0.00
2013-6-6,86.7,63.2,44.3,0.0,0.0,0.0,0,0,100,30.21,30.11,6,0,10,0.00
2013-6-7,87.7,67.3,55.6,0.0,0.0,0.0,0,0,100,30.20,29.88,5,1,15,0.00
2013-6-8,83.7,68.6,56.8,0.0,0.0,0.0,0,0,100,30.14,29.82,8,1,21,0.00
2013-6-9,98.4,72.0,51.9,0.0,0.0,0.0,0,0,100,30.14,30.01,6,1,12,0.00
2013-6-10,99.1,78.7,59.5,0.0,0.0,0.0,0,0,100,30.05,29.96,8,1,22,0.00
2013-6-11,101.5,80.1,59.4,0.0,0.0,0.0,0,0,100,30.11,29.88,7,1,18,0.00
2013-6-12,98.4,76.8,58.8,0.0,0.0,0.0,0,0,100,30.25,30.09,6,1,13,0.00
2013-6-13,90.1,70.8,59.7,0.0,0.0,0.0,0,0,100,30.24,30.01,8,0,15,0.00
2013-6-14,93.2,77.3,63.7,0.0,0.0,0.0,0,0,100,30.10,29.99,10,2,20,0.00
2013-6-15,88.8,69.9,57.0,0.0,0.0,0.0,0,0,100,30.19,30.07,5,1,13,0.00
2013-6-16,89.0,70.4,56.8,0.0,0.0,0.0,0,0,100,30.26,30.14,7,1,21,0.00
2013-6-17,90.9,69.3,54.0,0.0,0.0,0.0,0,0,100,30.28,30.14,7,1,14,0.00
2013-6-18,88.3,68.8,56.4,0.0,0.0,0.0,0,0,100,30.24,29.99,10,1,19,0.00
2013-6-19,100.1,72.8,53.0,0.0,0.0,0.0,0,0,100,30.08,29.75,8,1,15,0.00
2013-6-20,96.6,74.3,58.4,0.0,0.0,0.0,0,0,100,30.02,29.85,6,1,13,0.00
2013-6-21,90.7,74.9,60.4,0.0,0.0,0.0,0,0,100,30.02,29.88,6,0,23,0.00
2013-6-22,95.1,71.2,57.7,0.0,0.0,0.0,0,0,100,30.06,29.86,6,0,15,0.00
2013-6-23,87.0,68.4,54.6,0.0,0.0,0.0,0,0,100,30.13,29.93,7,1,21,0.00
2013-6-24,94.9,75.7,60.4,0.0,0.0,0.0,0,0,100,30.02,29.85,7,1,17,0.00
2013-6-25,97.0,77.7,62.2,0.0,0.0,0.0,0,0,100,30.14,29.91,8,2,22,0.00
2013-6-26,104.5,79.5,57.6,0.0,0.0,0.0,0,0,100,30.22,30.12,5,0,12,0.00
2013-6-27,103.9,83.1,64.8,0.0,0.0,0.0,0,0,100,30.40,30.19,6,0,14,0.00
2013-6-28,98.8,77.4,61.8,0.0,0.0,0.0,0,0,100,30.41,30.27,7,1,23,0.00
2013-6-29,90.1,72.8,62.2,0.0,0.0,0.0,0,0,100,30.38,30.23,6,0,12,0.00
2013-6-30,82.4,70.0,63.7,0.0,0.0,0.0,0,0,100,30.32,30.26,3,0,12,0.00
2013-7-1,88.4,70.2,59.4,0.0,0.0,0.0,0,0,100,30.41,30.30,10,1,22,0.00
2013-7-2,90.3,70.0,55.6,0.0,0.0,0.0,0,0,100,30.38,30.25,6,0,14,0.00
2013-7-3,94.2,72.5,56.3,0.0,0.0,0.0,0,0,100,30.24,30.03,6,0,11,0.00
2013-7-4,96.9,75.6,61.4,0.0,0.0,0.0,0,0,100,30.11,30.04,3,0,14,0.00
2013-7-5,91.1,74.7,65.8,0.0,0.0,0.0,0,0,100,30.04,29.95,7,0,16,0.00
2013-7-6,89.8,76.1,64.7,0.0,0.0,0.0,0,0,100,30.12,29.96,9,2,27,0.00
2013-7-7,91.1,76.4,63.6,0.0,0.0,0.0,0,0,100,30.19,30.09,7,2,15,0.00
2013-7-8,95.9,77.2,65.2,0.0,0.0,0.0,0,0,100,30.24,30.14,7,1,25,0.00
2013-7-9,97.8,79.2,66.8,0.0,0.0,0.0,0,0,100,30.35,30.24,7,1,18,0.00
2013-7-10,93.9,76.8,62.2,0.0,0.0,0.0,0,0,100,30.37,30.16,6,1,12,0.00
2013-7-11,98.1,78.1,63.4,0.0,0.0,0.0,0,0,100,30.24,30.00,10,1,25,0.00
2013-7-12,96.8,74.7,66.0,0.0,0.0,0.0,0,0,100,30.20,30.05,9,1,22,0.00
2013-7-13,92.4,72.3,64.2,0.0,0.0,0.0,0,0,100,30.31,30.16,7,1,18,0.00
2013-7-14,83.4,71.0,59.6,0.0,0.0,0.0,0,0,100,30.36,30.19,6,1,13,0.00
2013-7-15,81.1,70.8,64.9,0.0,0.0,0.0,0,0,100,30.32,30.22,7,1,18,0.00
2013-7-16,90.9,71.1,56.4,0.0,0.0,0.0,0,0,100,30.34,30.22,6,1,16,0.00
2013-7-17,95.9,75.3,59.9,0.0,0.0,0.0,0,0,100,30.34,30.22,3,0,11,0.00
2013-7-18,98.8,76.0,65.6,0.0,0.0,0.0,0,0,100,30.32,30.20,13,1,29,0.00
2013-7-19,93.0,75.4,66.1,0.0,0.0,0.0,0,0,100,30.32,30.20,6,1,16,0.00
2013-7-20,96.7,73.6,59.7,0.0,0.0,0.0,0,0,100,30.21,30.06,9,1,23,0.00
2013-7-21,96.1,74.7,60.4,0.0,0.0,0.0,0,0,100,30.11,30.01,5,0,14,0.00
2013-7-22,100.0,79.8,63.9,0.0,0.0,0.0,0,0,100,30.12,30.01,6,0,13,0.00
2013-7-23,96.9,76.5,63.6,0.0,0.0,0.0,0,0,100,30.30,30.08,5,0,12,0.00
2013-7-24,91.7,74.5,63.7,0.0,0.0,0.0,0,0,100,30.33,30.17,6,1,24,0.00
2013-7-25,80.2,66.7,58.3,0.0,0.0,0.0,0,0,100,30.38,30.17,5,0,20,0.00
2013-7-26,91.4,70.3,58.1,0.0,0.0,0.0,0,0,100,30.39,30.26,5,0,16,0.00
2013-7-27,82.6,67.3,56.3,0.0,0.0,0.0,0,0,100,30.28,30.15,6,0,13,0.00
2013-7-28,73.7,64.1,61.2,0.0,0.0,0.0,0,0,100,30.19,30.02,6,0,13,0.00
2013-7-29,78.1,64.6,59.2,0.0,0.0,0.0,0,0,100,30.27,30.02,3,0,12,0.00
2013-7-30,88.1,71.0,57.7,0.0,0.0,0.0,0,0,100,30.37,30.26,8,0,14,0.00
2013-7-31,95.3,74.7,59.9,0.0,0.0,0.0,0,0,100,30.43,30.27,6,1,12,0.00
2013-8-1,90.3,73.6,60.5,0.0,0.0,0.0,0,0,100,30.35,30.10,6,1,18,0.00
2013-8-2,95.0,76.9,63.1,0.0,0.0,0.0,0,0,100,30.19,30.06,9,1,16,0.00
2013-8-3,89.7,72.1,60.8,0.0,0.0,0.0,0,0,100,30.42,30.17,8,1,20,0.00
2013-8-4,85.5,70.3,56.9,0.0,0.0,0.0,0,0,100,30.33,30.19,8,1,17,0.00
2013-8-5,84.6,71.1,59.6,0.0,0.0,0.0,0,0,100,30.23,30.14,6,1,14,0.00
2013-8-6,89.8,69.9,58.7,0.0,0.0,0.0,0,0,100,30.22,30.08,9,1,23,0.00
2013-8-7,81.2,66.5,62.0,0.0,0.0,0.0,0,0,100,30.22,30.11,7,1,15,0.00
2013-8-8,78.1,65.4,59.5,0.0,0.0,0.0,0,0,100,30.29,30.12,5,0,12,0.00
2013-8-9,79.0,65.9,53.6,0.0,0.0,0.0,0,0,100,30.30,30.23,6,1,14,0.00
2013-8-10,88.8,67.3,53.5,0.0,0.0,0.0,0,0,100,30.32,30.19,8,1,29,0.00
2013-8-11,83.5,69.5,59.4,0.0,0.0,0.0,0,0,100,30.31,30.24,3,0,12,0.00
2013-8-12,79.2,67.3,57.2,0.0,0.0,0.0,0,0,100,30.41,30.24,8,1,16,0.00
2013-8-13,80.5,65.5,54.5,0.0,0.0,0.0,0,0,100,30.35,30.23,6,1,14,0.00
2013-8-14,83.5,67.7,55.8,0.0,0.0,0.0,0,0,100,30.32,30.22,6,0,15,0.00
2013-8-15,82.9,68.1,55.2,0.0,0.0,0.0,0,0,100,30.30,30.19,6,0,19,0.00
2013-8-16,90.5,72.4,56.4,0.0,0.0,0.0,0,0,100,30.30,30.22,5,0,9,0.00
2013-8-17,93.9,74.8,59.1,0.0,0.0,0.0,0,0,100,30.28,30.14,5,0,9,0.00
2013-8-18,89.9,74.1,60.3,0.0,0.0,0.0,0,0,100,30.27,30.16,5,0,15,0.00
2013-8-19,97.0,76.6,59.1,0.0,0.0,0.0,0,0,100,30.25,30.14,6,0,10,0.00
2013-8-20,96.4,78.0,61.3,0.0,0.0,0.0,0,0,100,30.17,30.09,8,1,14,0.00
2013-8-21,91.0,73.9,62.0,0.0,0.0,0.0,0,0,100,30.29,30.16,8,1,18,0.00
2013-8-22,78.8,67.6,60.4,0.0,0.0,0.0,0,0,100,30.35,30.22,5,0,15,0.00
2013-8-23,82.0,68.5,59.9,0.0,0.0,0.0,0,0,100,30.31,30.08,7,1,22,0.00
2013-8-24,81.4,68.8,56.9,0.0,0.0,0.0,0,0,100,30.22,30.12,6,1,17,0.00
2013-8-25,84.9,71.6,60.8,0.0,0.0,0.0,0,0,100,30.27,30.20,5,0,17,0.00
2013-8-26,86.7,73.2,61.9,0.0,0.0,0.0,0,0,100,30.27,30.22,7,0,17,0.00
2013-8-27,90.0,75.0,62.0,0.0,0.0,0.0,0,0,100,30.27,30.17,5,0,15,0.00
2013-8-28,90.5,75.4,62.6,0.0,0.0,0.0,0,0,100,30.26,30.19,3,0,11,0.00
2013-8-29,91.0,76.6,62.9,0.0,0.0,0.0,0,0,100,30.32,30.23,5,0,13,0.00
2013-8-30,91.1,75.7,68.5,0.0,0.0,0.0,0,0,100,30.32,30.22,7,1,17,0.00
2013-8-31,90.1,74.5,65.5,0.0,0.0,0.0,0,0,100,30.25,30.17,6,1,16,0.00
2013-9-1,77.8,70.3,62.4,0.0,0.0,0.0,0,0,100,30.33,30.22,5,0,12,0.00
2013-9-2,87.4,72.4,59.6,0.0,0.0,0.0,0,0,100,30.25,30.14,3,0,12,0.00
2013-9-3,93.0,78.5,65.6,0.0,0.0,0.0,0,0,100,30.26,30.17,7,1,16,0.00
2013-9-4,92.2,76.2,66.3,0.0,0.0,0.0,0,0,100,30.33,30.25,6,0,10,0.00
2013-9-5,89.6,75.6,65.1,0.0,0.0,0.0,0,0,100,30.33,30.24,3,0,10,0.00
2013-9-6,92.6,76.4,62.3,0.0,0.0,0.0,0,0,100,30.29,30.18,6,1,20,0.00
2013-9-7,90.7,75.8,60.5,0.0,0.0,0.0,0,0,100,30.27,30.13,5,0,11,0.00
2013-9-8,86.3,73.2,59.8,0.0,0.0,0.0,0,0,100,30.17,30.00,5,0,11,0.00
2013-9-9,85.3,67.3,58.4,0.0,0.0,0.0,0,0,100,30.18,30.00,7,1,17,0.00
2013-9-10,63.8,60.5,58.2,0.0,0.0,0.0,0,0,100,30.30,30.15,1,0,8,0.00
2013-9-11,67.8,61.7,59.5,0.0,0.0,0.0,0,0,100,30.31,30.26,3,0,14,0.00
2013-9-12,65.4,60.5,58.3,0.0,0.0,0.0,0,0,100,30.37,30.28,3,0,13,0.00
2013-9-13,71.3,62.3,58.1,0.0,0.0,0.0,0,0,100,30.28,29.99,2,0,10,0.00
2013-9-14,71.9,63.9,57.4,0.0,0.0,0.0,0,0,100,30.13,29.98,8,0,15,0.00
2013-9-15,61.3,58.2,55.3,0.0,0.0,0.0,0,0,100,30.37,30.13,5,0,10,0.00
2013-9-16,67.4,59.7,54.7,0.0,0.0,0.0,0,0,100,30.34,30.14,1,0,8,0.00
2013-9-17,78.6,64.2,51.0,0.0,0.0,0.0,0,0,100,30.15,29.93,6,1,11,0.00
2013-9-18,78.5,67.0,55.4,0.0,0.0,0.0,0,0,100,30.00,29.89,7,1,30,0.00
2013-9-19,66.1,59.4,52.0,0.0,0.0,0.0,0,0,100,30.26,29.98,7,1,10,0.00
2013-9-20,67.5,57.4,48.6,0.0,0.0,0.0,0,0,100,30.26,30.12,3,0,8,0.00
2013-9-21,77.1,61.8,47.8,0.0,0.0,0.0,0,0,100,30.12,29.88,5,0,10,0.00
2013-9-22,74.2,62.6,53.2,0.0,0.0,0.0,0,0,100,29.88,29.67,7,0,23,0.00
2013-9-23,62.9,56.8,49.7,0.0,0.0,0.0,0,0,100,30.12,29.61,8,2,22,0.00
2013-9-24,69.8,56.1,42.6,0.0,0.0,0.0,0,0,100,30.19,29.91,6,0,9,0.00
2013-9-25,73.5,59.4,44.5,0.0,0.0,0.0,0,0,100,29.90,29.53,5,0,12,0.00
2013-9-26,65.1,56.7,46.9,0.0,0.0,0.0,0,0,100,29.85,29.61,3,0,10,0.00
2013-9-27,53.9,49.1,42.0,0.0,0.0,0.0,0,0,100,30.03,29.77,5,0,10,0.00
2013-9-28,65.4,52.0,40.1,0.0,0.0,0.0,0,0,100,30.18,30.02,9,1,23,0.00
2013-9-29,73.1,57.7,41.7,0.0,0.0,0.0,0,0,100,30.15,29.95,7,1,19,0.00
2013-9-30,76.4,66.2,55.7,0.0,0.0,0.0,0,0,100,29.99,29.85,7,0,16,0.00
2013-10-1,69.7,60.4,48.2,0.0,0.0,0.0,0,0,100,30.16,29.99,3,0,9,0.00
2013-10-2,73.6,58.9,45.9,0.0,0.0,0.0,0,0,100,30.04,29.95,6,1,12,0.00
2013-10-3,60.6,52.6,43.3,0.0,0.0,0.0,0,0,100,30.00,29.79,5,0,13,0.00
2013-10-4,50.5,39.8,33.7,0.0,0.0,0.0,0,0,100,30.22,29.82,6,1,16,0.00
2013-10-5,56.8,44.1,30.8,0.0,0.0,0.0,0,0,100,30.24,30.16,7,1,17,0.00
2013-10-6,63.9,50.9,36.8,0.0,0.0,0.0,0,0,100,30.32,30.22,5,0,10,0.00
2013-10-7,70.6,53.7,38.4,0.0,0.0,0.0,0,0,100,30.25,29.98,3,0,8,0.00
2013-10-8,71.2,58.7,47.8,0.0,0.0,0.0,0,0,100,29.97,29.78,3,0,10,0.00
2013-10-9,61.7,54.3,46.4,0.0,0.0,0.0,0,0,100,30.03,29.85,5,0,12,0.00
2013-10-10,59.8,51.2,43.8,0.0,0.0,0.0,0,0,100,30.01,29.56,7,0,16,0.00
2013-10-11,61.6,53.7,44.2,0.0,0.0,0.0,0,0,100,30.09,29.45,12,4,32,0.00
2013-10-12,55.7,48.2,42.3,0.0,0.0,0.0,0,0,100,30.24,30.09,2,0,9,0.00
2013-10-13,57.2,48.0,37.2,0.0,0.0,0.0,0,0,100,30.18,29.91,3,0,9,0.00
2013-10-14,54.9,46.1,39.5,0.0,0.0,0.0,0,0,100,30.21,29.85,7,1,23,0.00
2013-10-15,45.1,39.8,35.6,0.0,0.0,0.0,0,0,100,30.34,30.21,6,1,10,0.00
2013-10-16,52.2,39.7,29.7,0.0,0.0,0.0,0,0,100,30.23,30.02,5,0,8,0.00
2013-10-17,50.4,41.8,34.3,0.0,0.0,0.0,0,0,100,30.16,30.04,2,0,10,0.00
2013-10-18,44.1,37.5,30.8,0.0,0.0,0.0,0,0,100,30.22,30.13,5,0,10,0.00
2013-10-19,61.1,48.0,29.8,0.0,0.0,0.0,0,0,100,30.13,29.93,10,2,25,0.00
2013-10-20,51.9,42.9,33.8,0.0,0.0,0.0,0,0,100,30.16,29.91,7,1,14,0.00
2013-10-21,56.5,42.2,29.7,0.0,0.0,0.0,0,0,100,30.22,30.12,5,0,12,0.00
2013-10-22,59.9,48.9,36.1,0.0,0.0,0.0,0,0,100,30.27,30.16,7,1,10,0.00
2013-10-23,61.3,47.1,36.2,0.0,0.0,0.0,0,0,100,30.27,30.14,6,0,10,0.00
2013-10-24,52.3,43.2,36.5,0.0,0.0,0.0,0,0,100,30.32,30.24,1,0,8,0.00
2013-10-25,62.7,47.3,33.7,0.0,0.0,0.0,0,0,100,30.30,30.15,2,0,8,0.00
2013-10-26,58.4,46.4,36.4,0.0,0.0,0.0,0,0,100,30.42,30.17,5,0,9,0.00
2013-10-27,65.9,50.0,35.7,0.0,0.0,0.0,0,0,100,30.17,29.87,9,1,19,0.00
2013-10-28,48.3,39.1,34.3,0.0,0.0,0.0,0,0,100,30.09,29.91,5,0,11,0.00
2013-10-29,39.9,36.6,34.1,0.0,0.0,0.0,0,0,100,30.03,29.86,0,0,5,0.00
2013-10-30,43.8,37.4,33.0,0.0,0.0,0.0,0,0,100,29.93,29.83,6,0,10,0.00
2013-10-31,50.0,44.6,30.6,0.0,0.0,0.0,0,0,100,29.90,29.79,14,6,29,0.00
2013-11-1,50.8,42.3,33.4,0.0,0.0,0.0,0,0,100,30.23,29.90,8,1,14,0.00
2013-11-2,56.7,41.4,28.5,0.0,0.0,0.0,0,0,100,30.23,29.77,3,0,12,0.00
2013-11-3,64.4,49.2,35.2,0.0,0.0,0.0,0,0,100,29.85,29.56,8,2,16,0.00
2013-11-4,45.3,36.9,29.1,0.0,0.0,0.0,0,0,100,30.03,29.85,9,2,17,0.00
2013-11-5,44.2,34.6,25.4,0.0,0.0,0.0,0,0,100,30.16,29.88,9,2,23,0.00
2013-11-6,50.4,42.8,31.6,0.0,0.0,0.0,0,0,100,30.36,30.11,12,5,24,0.00
2013-11-7,53.1,41.4,29.9,0.0,0.0,0.0,0,0,100,30.41,30.03,7,0,18,0.00
2013-11-8,64.3,48.9,32.6,0.0,0.0,0.0,0,0,100,30.05,29.81,10,2,28,0.00
2013-11-9,63.1,46.5,35.4,0.0,0.0,0.0,0,0,100,30.29,30.05,6,1,12,0.00
2013-11-10,61.8,45.1,31.0,0.0,0.0,0.0,0,0,100,30.29,30.19,5,0,14,0.00
2013-11-11,63.4,41.8,33.7,0.0,0.0,0.0,0,0,100,30.68,30.22,9,1,22,0.00
2013-11-12,56.0,39.9,30.0,0.0,0.0,0.0,0,0,100,30.68,30.40,5,0,9,0.00
2013-11-13,65.8,46.8,29.0,0.0,0.0,0.0,0,0,100,30.40,30.04,8,1,17,0.00
2013-11-14,57.1,47.8,38.2,0.0,0.0,0.0,0,0,100,30.14,29.77,7,1,17,0.00
2013-11-15,61.2,45.3,30.9,0.0,0.0,0.0,0,0,100,29.75,29.48,7,1,19,0.00
2013-11-16,58.4,46.3,35.5,0.0,0.0,0.0,0,0,100,29.54,29.30,12,3,23,0.00
2013-11-17,54.0,43.8,33.4,0.0,0.0,0.0,0,0,100,30.08,29.54,15,5,32,0.00
2013-11-18,61.4,42.7,26.3,0.0,0.0,0.0,0,0,100,30.16,30.04,7,1,16,0.00
2013-11-19,60.3,46.2,30.0,0.0,0.0,0.0,0,0,100,30.03,29.73,14,4,25,0.00
2013-11-20,59.4,47.6,31.5,0.0,0.0,0.0,0,0,100,30.05,29.77,9,1,21,0.00
2013-11-21,30.6,20.2,15.9,0.0,0.0,0.0,0,0,100,30.56,30.06,7,1,13,0.00
2013-11-22,36.6,27.5,19.1,0.0,0.0,0.0,0,0,100,30.60,30.45,6,0,10,0.00
2013-11-23,35.2,28.8,25.0,0.0,0.0,0.0,0,0,100,30.61,30.30,2,0,9,0.00
2013-11-24,39.3,31.2,22.8,0.0,0.0,0.0,0,0,100,30.29,29.95,3,0,12,0.00
2013-11-25,42.2,35.6,27.6,0.0,0.0,0.0,0,0,100,30.32,30.03,6,1,12,0.00
2013-11-26,47.8,34.1,25.8,0.0,0.0,0.0,0,0,100,30.41,30.25,6,0,9,0.00
2013-11-27,59.3,37.7,23.9,0.0,0.0,0.0,0,0,100,30.24,30.05,6,0,13,0.00
2013-11-28,46.7,35.2,27.8,0.0,0.0,0.0,0,0,100,30.24,30.12,3,0,10,0.00
2013-11-29,59.2,44.1,27.6,0.0,0.0,0.0,0,0,100,30.17,30.08,8,2,20,0.00
2013-11-30,57.2,42.1,31.2,0.0,0.0,0.0,0,0,100,30.19,30.11,7,1,17,0.00
2013-12-1,55.9,46.3,29.7,0.0,0.0,0.0,0,0,100,30.17,29.87,14,4,32,0.00
2013-12-2,58.2,50.4,42.9,0.0,0.0,0.0,0,0,100,29.88,29.56,13,3,25,0.00
2013-12-3,55.3,36.6,14.4,0.0,0.0,0.0,0,0,100,29.74,29.45,10,3,18,0.00
2013-12-4,16.0,10.3,1.6,0.0,0.0,0.0,0,0,100,30.00,29.69,6,1,12,0.00
2013-12-5,7.5,1.6,-5.3,0.0,0.0,0.0,0,0,100,30.04,29.91,3,0,8,0.00
2013-12-6,11.1,1.3,-5.5,0.0,0.0,0.0,0,0,100,30.15,30.02,2,0,7,0.00
2013-12-7,13.3,4.0,-3.1,0.0,0.0,0.0,0,0,100,30.12,29.68,1,0,7,0.00
2013-12-8,20.5,10.1,3.6,0.0,0.0,0.0,0,0,100,29.96,29.62,7,0,13,0.00
2013-12-9,26.9,14.6,-2.3,0.0,0.0,0.0,0,0,100,30.08,29.93,17,5,37,0.00
2013-12-10,43.5,33.4,22.8,0.0,0.0,0.0,0,0,100,30.23,29.88,14,5,33,0.00
2013-12-11,32.0,21.5,13.4,0.0,0.0,0.0,0,0,100,30.32,30.22,7,0,13,0.00
2013-12-12,48.4,27.7,15.6,0.0,0.0,0.0,0,0,100,30.27,29.91,0,0,6,0.00
2013-12-13,47.1,31.6,19.8,0.0,0.0,0.0,0,0,100,30.15,29.81,8,1,15,0.00
2013-12-14,43.3,33.1,19.7,0.0,0.0,0.0,0,0,100,30.27,30.14,13,2,25,0.00
2013-12-15,54.8,47.3,39.1,0.0,0.0,0.0,0,0,100,30.17,30.05,15,7,37,0.00
2013-12-16,59.7,52.3,40.6,0.0,0.0,0.0,0,0,100,30.27,30.09,13,7,33,0.00
2013-12-17,61.1,50.6,32.8,0.0,0.0,0.0,0,0,100,30.33,30.08,9,2,16,0.00
2013-12-18,64.7,55.6,42.7,0.0,0.0,0.0,0,0,100,30.08,29.73,10,3,25,0.00
2013-12-19,44.7,35.8,20.1,0.0,0.0,0.0,0,0,100,29.86,29.54,7,1,16,0.00
2013-12-20,26.8,22.2,18.7,0.0,0.0,0.0,0,0,100,29.85,29.60,5,0,7,0.00
2013-12-21,34.1,24.4,14.8,0.0,0.0,0.0,0,0,100,29.86,29.49,7,0,14,0.00
2013-12-22,38.3,27.1,16.6,0.0,0.0,0.0,0,0,100,30.22,29.87,10,2,24,0.00
2013-12-23,45.7,32.9,19.1,0.0,0.0,0.0,0,0,100,30.26,30.08,10,2,22,0.00
2013-12-24,52.9,41.1,22.2,0.0,0.0,0.0,0,0,100,30.29,29.97,14,4,32,0.00
2013-12-25,42.9,29.9,19.6,0.0,0.0,0.0,0,0,100,30.39,30.19,7,1,14,0.00
2013-12-26,53.1,42.5,27.1,0.0,0.0,0.0,0,0,100,30.31,30.16,12,3,26,0.00
2013-12-27,54.0,36.6,25.8,0.0,0.0,0.0,0,0,100,30.27,30.04,2,0,7,0.00
2013-12-28,57.2,36.2,22.5,0.0,0.0,0.0,0,0,100,30.23,29.85,10,2,18,0.00
2013-12-29,38.8,26.6,13.9,0.0,0.0,0.0,0,0,100,30.23,29.85,16,2,37,0.00
2013-12-30,45.4,38.8,31.5,0.0,0.0,0.0,0,0,100,30.19,29.91,16,4,34,0.00
2013-12-31,53.4,45.3,32.0,0.0,0.0,0.0,0,0,100,30.07,29.91,9,2,31,0.00
2014-1-1,44.6,35.5,23.1,0.0,0.0,0.0,0,0,100,30.31,29.88,9,1,19,0.00
2014-1-2,46.2,29.2,18.9,0.0,0.0,0.0,0,0,100,30.25,29.98,5,0,13,0.00